sensor_id;sensor_type;location;lat;lon;timestamp;P1;durP1;ratioP1;P2;durP2;ratioP2
16304;SDS011;8261;47.678;-122.174;2023-04-24T00:01:48;10.70;;;2.50;;
16304;SDS011;8261;47.678;-122.174;2023-04-24T00:04:20;10.30;;;2.50;;
16304;SDS011;8261;47.678;-122.174;2023-04-24T00:06:53;8.33;;;3.03;;
16304;SDS011;8261;47.678;-122.174;2023-04-24T00:09:27;10.13;;;2.87;;
16304;SDS011;8261;47.678;-122.174;2023-04-24T00:12:00;9.60;;;2.30;;
16304;SDS011;8261;47.678;-122.174;2023-04-24T00:14:33;13.70;;;3.50;;
16304;SDS011;8261;47.678;-122.174;2023-04-24T00:17:05;7.90;;;2.70;;
16304;SDS011;8261;47.678;-122.174;2023-04-24T00:19:36;8.00;;;2.70;;
16304;SDS011;8261;47.678;-122.174;2023-04-24T00:22:08;10.87;;;2.83;;
16304;SDS011;8261;47.678;-122.174;2023-04-24T00:24:41;8.73;;;2.47;;
16304;SDS011;8261;47.678;-122.174;2023-04-24T00:27:14;8.03;;;2.83;;
16304;SDS011;8261;47.678;-122.174;2023-04-24T00:29:46;10.10;;;3.07;;
16304;SDS011;8261;47.678;-122.174;2023-04-24T00:32:17;11.90;;;2.80;;
16304;SDS011;8261;47.678;-122.174;2023-04-24T00:34:49;10.47;;;2.57;;
16304;SDS011;8261;47.678;-122.174;2023-04-24T00:37:20;11.97;;;3.00;;
16304;SDS011;8261;47.678;-122.174;2023-04-24T00:39:52;7.57;;;3.00;;
16304;SDS011;8261;47.678;-122.174;2023-04-24T00:42:25;6.10;;;2.77;;
16304;SDS011;8261;47.678;-122.174;2023-04-24T00:45:02;11.03;;;3.23;;
16304;SDS011;8261;47.678;-122.174;2023-04-24T00:47:34;11.27;;;2.73;;
16304;SDS011;8261;47.678;-122.174;2023-04-24T00:50:06;11.13;;;2.90;;
16304;SDS011;8261;47.678;-122.174;2023-04-24T00:52:39;8.97;;;3.23;;
16304;SDS011;8261;47.678;-122.174;2023-04-24T00:55:10;9.97;;;3.10;;
16304;SDS011;8261;47.678;-122.174;2023-04-24T00:57:44;8.90;;;2.90;;
16304;SDS011;8261;47.678;-122.174;2023-04-24T01:00:17;7.60;;;2.67;;
16304;SDS011;8261;47.678;-122.174;2023-04-24T01:02:49;8.90;;;3.27;;
16304;SDS011;8261;47.678;-122.174;2023-04-24T01:05:22;10.53;;;3.57;;
16304;SDS011;8261;47.678;-122.174;2023-04-24T01:07:53;11.33;;;3.07;;
16304;SDS011;8261;47.678;-122.174;2023-04-24T01:10:25;7.80;;;3.00;;
16304;SDS011;8261;47.678;-122.174;2023-04-24T01:13:01;10.03;;;2.97;;
16304;SDS011;8261;47.678;-122.174;2023-04-24T01:15:33;8.63;;;3.07;;
16304;SDS011;8261;47.678;-122.174;2023-04-24T01:18:05;12.60;;;3.03;;
16304;SDS011;8261;47.678;-122.174;2023-04-24T01:20:37;8.90;;;3.07;;
16304;SDS011;8261;47.678;-122.174;2023-04-24T01:23:15;14.10;;;3.77;;
16304;SDS011;8261;47.678;-122.174;2023-04-24T01:25:46;10.57;;;2.80;;
16304;SDS011;8261;47.678;-122.174;2023-04-24T01:28:19;13.87;;;3.47;;
16304;SDS011;8261;47.678;-122.174;2023-04-24T01:30:51;10.97;;;3.27;;
16304;SDS011;8261;47.678;-122.174;2023-04-24T01:33:23;12.77;;;3.80;;
16304;SDS011;8261;47.678;-122.174;2023-04-24T01:35:55;13.27;;;3.47;;
16304;SDS011;8261;47.678;-122.174;2023-04-24T01:38:28;11.27;;;3.27;;
16304;SDS011;8261;47.678;-122.174;2023-04-24T01:40:59;11.13;;;3.70;;
16304;SDS011;8261;47.678;-122.174;2023-04-24T01:43:31;10.73;;;3.30;;
16304;SDS011;8261;47.678;-122.174;2023-04-24T01:46:03;10.27;;;3.30;;
16304;SDS011;8261;47.678;-122.174;2023-04-24T01:48:36;17.93;;;3.57;;
16304;SDS011;8261;47.678;-122.174;2023-04-24T01:51:08;11.37;;;3.90;;
16304;SDS011;8261;47.678;-122.174;2023-04-24T01:53:47;11.53;;;3.43;;
16304;SDS011;8261;47.678;-122.174;2023-04-24T01:56:18;11.60;;;3.30;;
16304;SDS011;8261;47.678;-122.174;2023-04-24T01:58:51;14.30;;;4.17;;
16304;SDS011;8261;47.678;-122.174;2023-04-24T02:01:24;10.47;;;3.53;;
16304;SDS011;8261;47.678;-122.174;2023-04-24T02:03:56;11.13;;;3.67;;
16304;SDS011;8261;47.678;-122.174;2023-04-24T02:06:28;13.00;;;3.70;;
16304;SDS011;8261;47.678;-122.174;2023-04-24T02:09:01;12.93;;;3.77;;
16304;SDS011;8261;47.678;-122.174;2023-04-24T02:11:33;13.80;;;3.73;;
16304;SDS011;8261;47.678;-122.174;2023-04-24T02:14:04;11.57;;;3.43;;
16304;SDS011;8261;47.678;-122.174;2023-04-24T02:16:36;11.03;;;4.07;;
16304;SDS011;8261;47.678;-122.174;2023-04-24T02:19:07;11.87;;;3.80;;
16304;SDS011;8261;47.678;-122.174;2023-04-24T02:21:39;16.90;;;4.10;;
16304;SDS011;8261;47.678;-122.174;2023-04-24T02:24:12;6.77;;;3.13;;
16304;SDS011;8261;47.678;-122.174;2023-04-24T02:26:43;16.13;;;4.17;;
16304;SDS011;8261;47.678;-122.174;2023-04-24T02:29:14;11.10;;;3.33;;
16304;SDS011;8261;47.678;-122.174;2023-04-24T02:31:46;11.17;;;3.60;;
16304;SDS011;8261;47.678;-122.174;2023-04-24T02:34:18;17.90;;;3.87;;
16304;SDS011;8261;47.678;-122.174;2023-04-24T02:36:50;12.40;;;3.57;;
16304;SDS011;8261;47.678;-122.174;2023-04-24T02:39:24;11.83;;;3.73;;
16304;SDS011;8261;47.678;-122.174;2023-04-24T02:41:56;13.20;;;4.37;;
16304;SDS011;8261;47.678;-122.174;2023-04-24T02:44:28;12.30;;;3.70;;
16304;SDS011;8261;47.678;-122.174;2023-04-24T02:46:59;12.20;;;3.83;;
16304;SDS011;8261;47.678;-122.174;2023-04-24T02:49:31;20.27;;;4.63;;
16304;SDS011;8261;47.678;-122.174;2023-04-24T02:52:03;8.73;;;3.77;;
16304;SDS011;8261;47.678;-122.174;2023-04-24T02:54:39;15.03;;;4.10;;
16304;SDS011;8261;47.678;-122.174;2023-04-24T02:57:11;12.73;;;4.03;;
16304;SDS011;8261;47.678;-122.174;2023-04-24T02:59:43;14.30;;;4.03;;
16304;SDS011;8261;47.678;-122.174;2023-04-24T03:02:14;8.83;;;3.33;;
16304;SDS011;8261;47.678;-122.174;2023-04-24T03:04:46;10.07;;;3.87;;
16304;SDS011;8261;47.678;-122.174;2023-04-24T03:07:18;8.97;;;3.00;;
16304;SDS011;8261;47.678;-122.174;2023-04-24T03:09:54;14.47;;;3.90;;
16304;SDS011;8261;47.678;-122.174;2023-04-24T03:12:26;8.47;;;3.50;;
16304;SDS011;8261;47.678;-122.174;2023-04-24T03:14:56;10.87;;;3.53;;
16304;SDS011;8261;47.678;-122.174;2023-04-24T03:17:28;12.83;;;3.90;;
16304;SDS011;8261;47.678;-122.174;2023-04-24T03:20:00;7.80;;;2.90;;
16304;SDS011;8261;47.678;-122.174;2023-04-24T03:22:34;11.97;;;3.63;;
16304;SDS011;8261;47.678;-122.174;2023-04-24T03:25:09;12.47;;;3.13;;
16304;SDS011;8261;47.678;-122.174;2023-04-24T03:27:40;8.20;;;3.30;;
16304;SDS011;8261;47.678;-122.174;2023-04-24T03:30:13;8.60;;;3.03;;
16304;SDS011;8261;47.678;-122.174;2023-04-24T03:32:44;7.17;;;2.87;;
16304;SDS011;8261;47.678;-122.174;2023-04-24T03:35:16;10.87;;;3.27;;
16304;SDS011;8261;47.678;-122.174;2023-04-24T03:37:49;10.03;;;3.00;;
16304;SDS011;8261;47.678;-122.174;2023-04-24T03:40:23;6.40;;;3.03;;
16304;SDS011;8261;47.678;-122.174;2023-04-24T03:42:57;11.47;;;3.37;;
16304;SDS011;8261;47.678;-122.174;2023-04-24T03:45:29;8.77;;;2.73;;
16304;SDS011;8261;47.678;-122.174;2023-04-24T03:48:01;10.47;;;2.63;;
16304;SDS011;8261;47.678;-122.174;2023-04-24T03:50:33;7.40;;;2.60;;
16304;SDS011;8261;47.678;-122.174;2023-04-24T03:53:05;6.37;;;2.60;;
16304;SDS011;8261;47.678;-122.174;2023-04-24T03:55:38;4.03;;;2.63;;
16304;SDS011;8261;47.678;-122.174;2023-04-24T03:58:10;8.90;;;2.77;;
16304;SDS011;8261;47.678;-122.174;2023-04-24T04:00:43;6.23;;;2.87;;
16304;SDS011;8261;47.678;-122.174;2023-04-24T04:03:18;6.23;;;2.47;;
16304;SDS011;8261;47.678;-122.174;2023-04-24T04:05:50;7.67;;;2.47;;
16304;SDS011;8261;47.678;-122.174;2023-04-24T04:08:22;6.00;;;2.27;;
16304;SDS011;8261;47.678;-122.174;2023-04-24T04:10:56;4.77;;;2.47;;
16304;SDS011;8261;47.678;-122.174;2023-04-24T04:13:30;8.40;;;2.37;;
16304;SDS011;8261;47.678;-122.174;2023-04-24T04:16:02;7.10;;;2.50;;
16304;SDS011;8261;47.678;-122.174;2023-04-24T04:18:33;6.67;;;2.47;;
16304;SDS011;8261;47.678;-122.174;2023-04-24T04:21:05;7.93;;;3.27;;
16304;SDS011;8261;47.678;-122.174;2023-04-24T04:23:37;11.77;;;2.80;;
16304;SDS011;8261;47.678;-122.174;2023-04-24T04:26:13;10.00;;;3.17;;
16304;SDS011;8261;47.678;-122.174;2023-04-24T04:28:44;11.10;;;2.90;;
16304;SDS011;8261;47.678;-122.174;2023-04-24T04:31:16;6.87;;;2.77;;
16304;SDS011;8261;47.678;-122.174;2023-04-24T04:33:48;6.73;;;2.90;;
16304;SDS011;8261;47.678;-122.174;2023-04-24T04:36:20;7.83;;;2.43;;
16304;SDS011;8261;47.678;-122.174;2023-04-24T04:38:52;8.97;;;2.50;;
16304;SDS011;8261;47.678;-122.174;2023-04-24T04:41:27;6.90;;;2.70;;
16304;SDS011;8261;47.678;-122.174;2023-04-24T04:43:59;7.77;;;2.70;;
16304;SDS011;8261;47.678;-122.174;2023-04-24T04:46:32;10.17;;;2.87;;
16304;SDS011;8261;47.678;-122.174;2023-04-24T04:49:05;10.93;;;3.23;;
16304;SDS011;8261;47.678;-122.174;2023-04-24T04:51:37;5.43;;;3.47;;
16304;SDS011;8261;47.678;-122.174;2023-04-24T04:54:09;5.30;;;2.73;;
16304;SDS011;8261;47.678;-122.174;2023-04-24T04:56:44;9.77;;;2.97;;
16304;SDS011;8261;47.678;-122.174;2023-04-24T04:59:15;5.70;;;2.60;;
16304;SDS011;8261;47.678;-122.174;2023-04-24T05:01:48;6.73;;;3.07;;
16304;SDS011;8261;47.678;-122.174;2023-04-24T05:04:22;7.07;;;3.10;;
16304;SDS011;8261;47.678;-122.174;2023-04-24T05:06:54;6.30;;;2.73;;
16304;SDS011;8261;47.678;-122.174;2023-04-24T05:09:26;7.90;;;3.27;;
16304;SDS011;8261;47.678;-122.174;2023-04-24T05:12:00;9.77;;;3.00;;
16304;SDS011;8261;47.678;-122.174;2023-04-24T05:14:33;5.90;;;3.07;;
16304;SDS011;8261;47.678;-122.174;2023-04-24T05:17:05;7.20;;;3.00;;
16304;SDS011;8261;47.678;-122.174;2023-04-24T05:19:38;6.17;;;2.73;;
16304;SDS011;8261;47.678;-122.174;2023-04-24T05:22:10;6.77;;;3.00;;
16304;SDS011;8261;47.678;-122.174;2023-04-24T05:24:42;8.23;;;3.20;;
16304;SDS011;8261;47.678;-122.174;2023-04-24T05:27:15;6.23;;;3.20;;
16304;SDS011;8261;47.678;-122.174;2023-04-24T05:29:47;4.57;;;3.13;;
16304;SDS011;8261;47.678;-122.174;2023-04-24T05:32:19;5.40;;;3.00;;
16304;SDS011;8261;47.678;-122.174;2023-04-24T05:34:50;7.77;;;2.93;;
16304;SDS011;8261;47.678;-122.174;2023-04-24T05:37:22;6.60;;;3.30;;
16304;SDS011;8261;47.678;-122.174;2023-04-24T05:39:55;7.23;;;3.63;;
16304;SDS011;8261;47.678;-122.174;2023-04-24T05:42:29;5.67;;;3.40;;
16304;SDS011;8261;47.678;-122.174;2023-04-24T05:45:00;7.37;;;3.47;;
16304;SDS011;8261;47.678;-122.174;2023-04-24T05:47:32;10.83;;;3.93;;
16304;SDS011;8261;47.678;-122.174;2023-04-24T05:50:04;9.67;;;3.43;;
16304;SDS011;8261;47.678;-122.174;2023-04-24T05:52:37;11.90;;;3.63;;
16304;SDS011;8261;47.678;-122.174;2023-04-24T05:55:08;7.23;;;3.80;;
16304;SDS011;8261;47.678;-122.174;2023-04-24T05:57:43;7.33;;;3.57;;
16304;SDS011;8261;47.678;-122.174;2023-04-24T06:00:15;12.47;;;3.90;;
16304;SDS011;8261;47.678;-122.174;2023-04-24T06:02:48;7.53;;;3.23;;
16304;SDS011;8261;47.678;-122.174;2023-04-24T06:05:22;14.40;;;4.17;;
16304;SDS011;8261;47.678;-122.174;2023-04-24T06:07:54;7.63;;;3.73;;
16304;SDS011;8261;47.678;-122.174;2023-04-24T06:10:26;5.80;;;3.53;;
16304;SDS011;8261;47.678;-122.174;2023-04-24T06:13:00;6.97;;;3.80;;
16304;SDS011;8261;47.678;-122.174;2023-04-24T06:15:32;7.03;;;3.33;;
16304;SDS011;8261;47.678;-122.174;2023-04-24T06:18:03;8.27;;;3.53;;
16304;SDS011;8261;47.678;-122.174;2023-04-24T06:20:35;5.90;;;3.40;;
16304;SDS011;8261;47.678;-122.174;2023-04-24T06:23:07;5.33;;;3.40;;
16304;SDS011;8261;47.678;-122.174;2023-04-24T06:25:39;4.67;;;3.23;;
16304;SDS011;8261;47.678;-122.174;2023-04-24T06:28:14;5.83;;;3.10;;
16304;SDS011;8261;47.678;-122.174;2023-04-24T06:30:46;6.63;;;3.07;;
16304;SDS011;8261;47.678;-122.174;2023-04-24T06:33:18;6.57;;;2.67;;
16304;SDS011;8261;47.678;-122.174;2023-04-24T06:35:50;4.97;;;3.00;;
16304;SDS011;8261;47.678;-122.174;2023-04-24T06:38:21;5.97;;;2.80;;
16304;SDS011;8261;47.678;-122.174;2023-04-24T06:40:53;5.60;;;2.80;;
16304;SDS011;8261;47.678;-122.174;2023-04-24T06:43:28;4.77;;;3.03;;
16304;SDS011;8261;47.678;-122.174;2023-04-24T06:46:00;6.77;;;2.80;;
16304;SDS011;8261;47.678;-122.174;2023-04-24T06:48:32;4.97;;;2.57;;
16304;SDS011;8261;47.678;-122.174;2023-04-24T06:51:04;7.50;;;3.13;;
16304;SDS011;8261;47.678;-122.174;2023-04-24T06:53:35;4.37;;;2.80;;
16304;SDS011;8261;47.678;-122.174;2023-04-24T06:56:07;4.57;;;2.67;;
16304;SDS011;8261;47.678;-122.174;2023-04-24T06:58:41;6.23;;;3.00;;
16304;SDS011;8261;47.678;-122.174;2023-04-24T07:01:13;5.77;;;2.83;;
16304;SDS011;8261;47.678;-122.174;2023-04-24T07:03:45;5.63;;;2.90;;
16304;SDS011;8261;47.678;-122.174;2023-04-24T07:06:17;6.77;;;3.00;;
16304;SDS011;8261;47.678;-122.174;2023-04-24T07:08:51;6.70;;;3.03;;
16304;SDS011;8261;47.678;-122.174;2023-04-24T07:11:23;5.87;;;2.50;;
16304;SDS011;8261;47.678;-122.174;2023-04-24T07:14:00;4.10;;;2.50;;
16304;SDS011;8261;47.678;-122.174;2023-04-24T07:16:32;4.43;;;1.87;;
16304;SDS011;8261;47.678;-122.174;2023-04-24T07:19:03;3.67;;;2.00;;
16304;SDS011;8261;47.678;-122.174;2023-04-24T07:21:35;3.33;;;2.20;;
16304;SDS011;8261;47.678;-122.174;2023-04-24T07:24:07;4.23;;;2.03;;
16304;SDS011;8261;47.678;-122.174;2023-04-24T07:26:40;3.47;;;1.80;;
16304;SDS011;8261;47.678;-122.174;2023-04-24T07:29:15;3.03;;;1.90;;
16304;SDS011;8261;47.678;-122.174;2023-04-24T07:31:46;1.83;;;1.57;;
16304;SDS011;8261;47.678;-122.174;2023-04-24T07:34:18;3.03;;;1.87;;
16304;SDS011;8261;47.678;-122.174;2023-04-24T07:36:50;2.60;;;1.67;;
16304;SDS011;8261;47.678;-122.174;2023-04-24T07:39:21;3.87;;;1.40;;
16304;SDS011;8261;47.678;-122.174;2023-04-24T07:41:52;7.17;;;1.90;;
16304;SDS011;8261;47.678;-122.174;2023-04-24T07:44:26;3.73;;;2.00;;
16304;SDS011;8261;47.678;-122.174;2023-04-24T07:46:58;3.60;;;1.50;;
16304;SDS011;8261;47.678;-122.174;2023-04-24T07:49:29;2.37;;;1.60;;
16304;SDS011;8261;47.678;-122.174;2023-04-24T07:52:02;3.90;;;1.97;;
16304;SDS011;8261;47.678;-122.174;2023-04-24T07:54:34;3.17;;;1.57;;
16304;SDS011;8261;47.678;-122.174;2023-04-24T07:57:06;3.67;;;1.40;;
16304;SDS011;8261;47.678;-122.174;2023-04-24T07:59:41;4.63;;;1.40;;
16304;SDS011;8261;47.678;-122.174;2023-04-24T08:02:13;3.47;;;1.50;;
16304;SDS011;8261;47.678;-122.174;2023-04-24T08:04:45;3.07;;;1.30;;
16304;SDS011;8261;47.678;-122.174;2023-04-24T08:07:17;1.53;;;1.10;;
16304;SDS011;8261;47.678;-122.174;2023-04-24T08:09:49;3.13;;;1.00;;
16304;SDS011;8261;47.678;-122.174;2023-04-24T08:12:20;1.57;;;1.20;;
16304;SDS011;8261;47.678;-122.174;2023-04-24T08:14:54;1.83;;;1.00;;
16304;SDS011;8261;47.678;-122.174;2023-04-24T08:17:25;3.33;;;1.00;;
16304;SDS011;8261;47.678;-122.174;2023-04-24T08:19:57;1.63;;;0.87;;
16304;SDS011;8261;47.678;-122.174;2023-04-24T08:22:29;5.23;;;1.37;;
16304;SDS011;8261;47.678;-122.174;2023-04-24T08:25:01;1.20;;;0.90;;
16304;SDS011;8261;47.678;-122.174;2023-04-24T08:27:32;1.93;;;0.80;;
16304;SDS011;8261;47.678;-122.174;2023-04-24T08:30:08;2.97;;;0.93;;
16304;SDS011;8261;47.678;-122.174;2023-04-24T08:32:39;1.53;;;0.70;;
16304;SDS011;8261;47.678;-122.174;2023-04-24T08:35:11;0.63;;;0.60;;
16304;SDS011;8261;47.678;-122.174;2023-04-24T08:37:42;1.10;;;0.80;;
16304;SDS011;8261;47.678;-122.174;2023-04-24T08:40:16;1.97;;;0.90;;
16304;SDS011;8261;47.678;-122.174;2023-04-24T08:42:47;0.90;;;0.50;;
16304;SDS011;8261;47.678;-122.174;2023-04-24T08:45:23;1.03;;;0.87;;
16304;SDS011;8261;47.678;-122.174;2023-04-24T08:47:55;1.13;;;0.70;;
16304;SDS011;8261;47.678;-122.174;2023-04-24T08:50:30;1.23;;;0.70;;
16304;SDS011;8261;47.678;-122.174;2023-04-24T08:53:04;2.43;;;0.50;;
16304;SDS011;8261;47.678;-122.174;2023-04-24T08:55:37;1.30;;;0.40;;
16304;SDS011;8261;47.678;-122.174;2023-04-24T08:58:09;0.50;;;0.43;;
16304;SDS011;8261;47.678;-122.174;2023-04-24T09:00:44;1.07;;;0.57;;
16304;SDS011;8261;47.678;-122.174;2023-04-24T09:03:16;0.50;;;0.50;;
16304;SDS011;8261;47.678;-122.174;2023-04-24T09:05:48;1.63;;;0.50;;
16304;SDS011;8261;47.678;-122.174;2023-04-24T09:08:20;0.40;;;0.37;;
16304;SDS011;8261;47.678;-122.174;2023-04-24T09:10:53;0.57;;;0.47;;
16304;SDS011;8261;47.678;-122.174;2023-04-24T09:13:26;1.07;;;0.40;;
16304;SDS011;8261;47.678;-122.174;2023-04-24T09:16:00;0.60;;;0.40;;
16304;SDS011;8261;47.678;-122.174;2023-04-24T09:18:32;1.43;;;0.73;;
16304;SDS011;8261;47.678;-122.174;2023-04-24T09:21:06;1.27;;;0.50;;
16304;SDS011;8261;47.678;-122.174;2023-04-24T09:23:38;0.47;;;0.40;;
16304;SDS011;8261;47.678;-122.174;2023-04-24T09:26:11;0.57;;;0.47;;
16304;SDS011;8261;47.678;-122.174;2023-04-24T09:28:43;0.50;;;0.50;;
16304;SDS011;8261;47.678;-122.174;2023-04-24T09:31:17;0.90;;;0.47;;
16304;SDS011;8261;47.678;-122.174;2023-04-24T09:33:54;0.43;;;0.43;;
16304;SDS011;8261;47.678;-122.174;2023-04-24T09:36:29;1.23;;;0.60;;
16304;SDS011;8261;47.678;-122.174;2023-04-24T09:39:01;0.60;;;0.60;;
16304;SDS011;8261;47.678;-122.174;2023-04-24T09:41:36;1.53;;;0.50;;
16304;SDS011;8261;47.678;-122.174;2023-04-24T09:44:15;1.90;;;0.53;;
16304;SDS011;8261;47.678;-122.174;2023-04-24T09:46:51;1.20;;;0.50;;
16304;SDS011;8261;47.678;-122.174;2023-04-24T09:49:24;1.83;;;0.50;;
16304;SDS011;8261;47.678;-122.174;2023-04-24T09:52:02;1.43;;;0.67;;
16304;SDS011;8261;47.678;-122.174;2023-04-24T09:54:34;1.17;;;0.50;;
16304;SDS011;8261;47.678;-122.174;2023-04-24T09:57:07;1.80;;;0.50;;
16304;SDS011;8261;47.678;-122.174;2023-04-24T09:59:42;1.57;;;0.50;;
16304;SDS011;8261;47.678;-122.174;2023-04-24T10:02:18;2.23;;;0.60;;
16304;SDS011;8261;47.678;-122.174;2023-04-24T10:04:54;0.50;;;0.50;;
16304;SDS011;8261;47.678;-122.174;2023-04-24T10:07:27;0.50;;;0.50;;
16304;SDS011;8261;47.678;-122.174;2023-04-24T10:09:59;1.57;;;0.70;;
16304;SDS011;8261;47.678;-122.174;2023-04-24T10:12:31;0.60;;;0.50;;
16304;SDS011;8261;47.678;-122.174;2023-04-24T10:15:02;1.37;;;0.40;;
16304;SDS011;8261;47.678;-122.174;2023-04-24T10:17:39;0.87;;;0.50;;
16304;SDS011;8261;47.678;-122.174;2023-04-24T10:20:12;1.83;;;0.73;;
16304;SDS011;8261;47.678;-122.174;2023-04-24T10:22:44;1.13;;;0.50;;
16304;SDS011;8261;47.678;-122.174;2023-04-24T10:25:19;0.83;;;0.67;;
16304;SDS011;8261;47.678;-122.174;2023-04-24T10:27:51;0.90;;;0.60;;
16304;SDS011;8261;47.678;-122.174;2023-04-24T10:30:27;3.50;;;0.70;;
16304;SDS011;8261;47.678;-122.174;2023-04-24T10:33:05;2.40;;;0.93;;
16304;SDS011;8261;47.678;-122.174;2023-04-24T10:35:39;1.00;;;0.90;;
16304;SDS011;8261;47.678;-122.174;2023-04-24T10:38:12;1.57;;;0.97;;
16304;SDS011;8261;47.678;-122.174;2023-04-24T10:40:46;1.33;;;0.57;;
16304;SDS011;8261;47.678;-122.174;2023-04-24T10:43:19;1.30;;;0.50;;
16304;SDS011;8261;47.678;-122.174;2023-04-24T10:46:00;0.70;;;0.50;;
16304;SDS011;8261;47.678;-122.174;2023-04-24T10:48:34;0.37;;;0.37;;
16304;SDS011;8261;47.678;-122.174;2023-04-24T10:51:11;0.70;;;0.50;;
16304;SDS011;8261;47.678;-122.174;2023-04-24T10:53:43;0.67;;;0.60;;
16304;SDS011;8261;47.678;-122.174;2023-04-24T10:56:15;1.20;;;0.60;;
16304;SDS011;8261;47.678;-122.174;2023-04-24T10:58:49;2.37;;;0.70;;
16304;SDS011;8261;47.678;-122.174;2023-04-24T11:01:25;0.60;;;0.50;;
16304;SDS011;8261;47.678;-122.174;2023-04-24T11:04:02;2.03;;;0.53;;
16304;SDS011;8261;47.678;-122.174;2023-04-24T11:06:34;0.60;;;0.57;;
16304;SDS011;8261;47.678;-122.174;2023-04-24T11:09:06;1.70;;;0.70;;
16304;SDS011;8261;47.678;-122.174;2023-04-24T11:11:44;0.67;;;0.50;;
16304;SDS011;8261;47.678;-122.174;2023-04-24T11:14:16;1.00;;;0.57;;
16304;SDS011;8261;47.678;-122.174;2023-04-24T11:16:51;1.03;;;0.60;;
16304;SDS011;8261;47.678;-122.174;2023-04-24T11:19:26;2.63;;;0.40;;
16304;SDS011;8261;47.678;-122.174;2023-04-24T11:21:59;1.10;;;0.50;;
16304;SDS011;8261;47.678;-122.174;2023-04-24T11:24:32;0.60;;;0.50;;
16304;SDS011;8261;47.678;-122.174;2023-04-24T11:27:11;1.50;;;0.40;;
16304;SDS011;8261;47.678;-122.174;2023-04-24T11:29:44;1.90;;;0.50;;
16304;SDS011;8261;47.678;-122.174;2023-04-24T11:32:27;0.40;;;0.40;;
16304;SDS011;8261;47.678;-122.174;2023-04-24T11:35:03;0.97;;;0.47;;
16304;SDS011;8261;47.678;-122.174;2023-04-24T11:37:37;0.97;;;0.30;;
16304;SDS011;8261;47.678;-122.174;2023-04-24T11:40:10;0.50;;;0.30;;
16304;SDS011;8261;47.678;-122.174;2023-04-24T11:42:43;2.97;;;0.80;;
16304;SDS011;8261;47.678;-122.174;2023-04-24T11:45:17;1.40;;;0.50;;
16304;SDS011;8261;47.678;-122.174;2023-04-24T11:47:51;1.27;;;0.63;;
16304;SDS011;8261;47.678;-122.174;2023-04-24T11:50:25;2.23;;;0.67;;
16304;SDS011;8261;47.678;-122.174;2023-04-24T11:52:58;1.33;;;0.67;;
16304;SDS011;8261;47.678;-122.174;2023-04-24T11:55:31;2.53;;;0.70;;
16304;SDS011;8261;47.678;-122.174;2023-04-24T11:58:02;1.50;;;0.63;;
16304;SDS011;8261;47.678;-122.174;2023-04-24T12:00:35;1.60;;;0.60;;
16304;SDS011;8261;47.678;-122.174;2023-04-24T12:03:08;1.40;;;0.43;;
16304;SDS011;8261;47.678;-122.174;2023-04-24T12:05:43;2.20;;;0.47;;
16304;SDS011;8261;47.678;-122.174;2023-04-24T12:08:26;1.33;;;0.33;;
16304;SDS011;8261;47.678;-122.174;2023-04-24T12:11:00;0.87;;;0.40;;
16304;SDS011;8261;47.678;-122.174;2023-04-24T12:13:31;0.50;;;0.50;;
16304;SDS011;8261;47.678;-122.174;2023-04-24T12:16:04;0.50;;;0.50;;
16304;SDS011;8261;47.678;-122.174;2023-04-24T12:18:41;1.07;;;0.50;;
16304;SDS011;8261;47.678;-122.174;2023-04-24T12:21:21;1.10;;;0.50;;
16304;SDS011;8261;47.678;-122.174;2023-04-24T12:23:55;2.60;;;0.60;;
16304;SDS011;8261;47.678;-122.174;2023-04-24T12:26:26;1.43;;;0.60;;
16304;SDS011;8261;47.678;-122.174;2023-04-24T12:29:01;2.40;;;0.40;;
16304;SDS011;8261;47.678;-122.174;2023-04-24T12:31:33;0.63;;;0.40;;
16304;SDS011;8261;47.678;-122.174;2023-04-24T12:34:16;1.20;;;0.60;;
16304;SDS011;8261;47.678;-122.174;2023-04-24T12:36:52;1.57;;;0.50;;
16304;SDS011;8261;47.678;-122.174;2023-04-24T12:39:23;2.47;;;0.67;;
16304;SDS011;8261;47.678;-122.174;2023-04-24T12:41:55;1.50;;;0.50;;
16304;SDS011;8261;47.678;-122.174;2023-04-24T12:44:30;1.97;;;0.50;;
16304;SDS011;8261;47.678;-122.174;2023-04-24T12:47:02;0.53;;;0.40;;
16304;SDS011;8261;47.678;-122.174;2023-04-24T12:49:34;5.30;;;0.43;;
16304;SDS011;8261;47.678;-122.174;2023-04-24T12:52:09;0.30;;;0.30;;
16304;SDS011;8261;47.678;-122.174;2023-04-24T12:54:40;1.50;;;0.40;;
16304;SDS011;8261;47.678;-122.174;2023-04-24T12:57:12;1.30;;;0.50;;
16304;SDS011;8261;47.678;-122.174;2023-04-24T12:59:43;1.17;;;0.63;;
16304;SDS011;8261;47.678;-122.174;2023-04-24T13:02:15;1.53;;;0.50;;
16304;SDS011;8261;47.678;-122.174;2023-04-24T13:04:47;0.63;;;0.50;;
16304;SDS011;8261;47.678;-122.174;2023-04-24T13:07:20;0.40;;;0.40;;
16304;SDS011;8261;47.678;-122.174;2023-04-24T13:09:54;0.40;;;0.40;;
16304;SDS011;8261;47.678;-122.174;2023-04-24T13:12:26;1.73;;;0.50;;
16304;SDS011;8261;47.678;-122.174;2023-04-24T13:14:58;0.40;;;0.40;;
16304;SDS011;8261;47.678;-122.174;2023-04-24T13:17:29;2.50;;;0.53;;
16304;SDS011;8261;47.678;-122.174;2023-04-24T13:20:01;2.40;;;0.50;;
16304;SDS011;8261;47.678;-122.174;2023-04-24T13:22:35;0.50;;;0.40;;
16304;SDS011;8261;47.678;-122.174;2023-04-24T13:25:07;3.13;;;0.90;;
16304;SDS011;8261;47.678;-122.174;2023-04-24T13:27:39;2.93;;;0.60;;
16304;SDS011;8261;47.678;-122.174;2023-04-24T13:30:10;1.23;;;0.57;;
16304;SDS011;8261;47.678;-122.174;2023-04-24T13:32:42;1.30;;;0.50;;
16304;SDS011;8261;47.678;-122.174;2023-04-24T13:35:14;1.63;;;0.67;;
16304;SDS011;8261;47.678;-122.174;2023-04-24T13:37:48;2.43;;;0.93;;
16304;SDS011;8261;47.678;-122.174;2023-04-24T13:40:19;1.97;;;1.00;;
16304;SDS011;8261;47.678;-122.174;2023-04-24T13:42:51;2.00;;;1.10;;
16304;SDS011;8261;47.678;-122.174;2023-04-24T13:45:23;3.17;;;1.20;;
16304;SDS011;8261;47.678;-122.174;2023-04-24T13:47:55;2.10;;;1.03;;
16304;SDS011;8261;47.678;-122.174;2023-04-24T13:50:27;2.40;;;1.30;;
16304;SDS011;8261;47.678;-122.174;2023-04-24T13:53:01;1.37;;;1.10;;
16304;SDS011;8261;47.678;-122.174;2023-04-24T13:55:33;1.10;;;1.00;;
16304;SDS011;8261;47.678;-122.174;2023-04-24T13:58:04;2.20;;;1.10;;
16304;SDS011;8261;47.678;-122.174;2023-04-24T14:00:37;1.20;;;1.00;;
16304;SDS011;8261;47.678;-122.174;2023-04-24T14:03:09;2.40;;;1.00;;
16304;SDS011;8261;47.678;-122.174;2023-04-24T14:05:40;1.73;;;1.00;;
16304;SDS011;8261;47.678;-122.174;2023-04-24T14:08:14;1.30;;;0.87;;
16304;SDS011;8261;47.678;-122.174;2023-04-24T14:10:45;0.80;;;0.80;;
16304;SDS011;8261;47.678;-122.174;2023-04-24T14:13:16;1.60;;;0.70;;
16304;SDS011;8261;47.678;-122.174;2023-04-24T14:15:48;1.53;;;0.80;;
16304;SDS011;8261;47.678;-122.174;2023-04-24T14:18:20;0.83;;;0.80;;
16304;SDS011;8261;47.678;-122.174;2023-04-24T14:20:52;4.37;;;1.00;;
16304;SDS011;8261;47.678;-122.174;2023-04-24T14:23:25;2.37;;;0.60;;
16304;SDS011;8261;47.678;-122.174;2023-04-24T14:25:57;1.27;;;0.90;;
16304;SDS011;8261;47.678;-122.174;2023-04-24T14:28:29;1.83;;;0.90;;
16304;SDS011;8261;47.678;-122.174;2023-04-24T14:31:00;1.53;;;0.73;;
16304;SDS011;8261;47.678;-122.174;2023-04-24T14:33:31;1.13;;;0.70;;
16304;SDS011;8261;47.678;-122.174;2023-04-24T14:36:02;0.97;;;0.60;;
16304;SDS011;8261;47.678;-122.174;2023-04-24T14:38:36;0.73;;;0.50;;
16304;SDS011;8261;47.678;-122.174;2023-04-24T14:41:07;2.43;;;0.60;;
16304;SDS011;8261;47.678;-122.174;2023-04-24T14:43:40;0.60;;;0.60;;
16304;SDS011;8261;47.678;-122.174;2023-04-24T14:46:12;2.97;;;0.83;;
16304;SDS011;8261;47.678;-122.174;2023-04-24T14:48:44;1.57;;;0.83;;
16304;SDS011;8261;47.678;-122.174;2023-04-24T14:51:15;1.00;;;0.90;;